sensor_id;sensor_type;location;lat;lon;timestamp;P1;durP1;ratioP1;P2;durP2;ratioP2
17449;SDS011;8842;51.244;7.102;2023-06-24T00:03:55;9.87;;;9.23;;
17449;SDS011;8842;51.244;7.102;2023-06-24T00:09:07;9.90;;;9.40;;
17449;SDS011;8842;51.244;7.102;2023-06-24T00:14:11;9.53;;;9.03;;
17449;SDS011;8842;51.244;7.102;2023-06-24T00:19:23;10.60;;;10.00;;
17449;SDS011;8842;51.244;7.102;2023-06-24T00:24:28;9.87;;;9.37;;
17449;SDS011;8842;51.244;7.102;2023-06-24T00:29:32;9.93;;;9.43;;
17449;SDS011;8842;51.244;7.102;2023-06-24T00:34:43;9.80;;;9.30;;
17449;SDS011;8842;51.244;7.102;2023-06-24T00:39:55;9.80;;;9.30;;
17449;SDS011;8842;51.244;7.102;2023-06-24T00:44:59;9.93;;;9.43;;
17449;SDS011;8842;51.244;7.102;2023-06-24T00:50:11;9.63;;;9.13;;
17449;SDS011;8842;51.244;7.102;2023-06-24T00:55:15;9.43;;;8.93;;
17449;SDS011;8842;51.244;7.102;2023-06-24T01:00:27;9.83;;;9.33;;
17449;SDS011;8842;51.244;7.102;2023-06-24T01:05:31;10.13;;;9.53;;
17449;SDS011;8842;51.244;7.102;2023-06-24T01:10:37;9.77;;;9.27;;
17449;SDS011;8842;51.244;7.102;2023-06-24T01:15:49;9.80;;;9.30;;
17449;SDS011;8842;51.244;7.102;2023-06-24T01:26:13;9.80;;;9.30;;
17449;SDS011;8842;51.244;7.102;2023-06-24T01:31:29;9.70;;;9.20;;
17449;SDS011;8842;51.244;7.102;2023-06-24T01:36:38;10.13;;;9.63;;
17449;SDS011;8842;51.244;7.102;2023-06-24T01:41:53;10.00;;;9.50;;
17449;SDS011;8842;51.244;7.102;2023-06-24T01:46:59;10.00;;;9.50;;
17449;SDS011;8842;51.244;7.102;2023-06-24T01:52:06;9.80;;;9.30;;
17449;SDS011;8842;51.244;7.102;2023-06-24T01:57:19;10.00;;;9.50;;
17449;SDS011;8842;51.244;7.102;2023-06-24T02:02:26;9.60;;;9.10;;
17449;SDS011;8842;51.244;7.102;2023-06-24T02:07:41;9.40;;;8.90;;
17449;SDS011;8842;51.244;7.102;2023-06-24T02:12:48;9.47;;;8.97;;
17449;SDS011;8842;51.244;7.102;2023-06-24T02:18:02;9.27;;;8.77;;
17449;SDS011;8842;51.244;7.102;2023-06-24T02:23:08;8.97;;;8.57;;
17449;SDS011;8842;51.244;7.102;2023-06-24T02:28:13;9.70;;;9.20;;
17449;SDS011;8842;51.244;7.102;2023-06-24T02:33:28;9.27;;;8.77;;
17449;SDS011;8842;51.244;7.102;2023-06-24T02:38:33;9.50;;;9.00;;
17449;SDS011;8842;51.244;7.102;2023-06-24T02:43:45;9.23;;;8.73;;
17449;SDS011;8842;51.244;7.102;2023-06-24T02:48:48;9.00;;;8.60;;
17449;SDS011;8842;51.244;7.102;2023-06-24T02:54:01;9.27;;;8.77;;
17449;SDS011;8842;51.244;7.102;2023-06-24T02:59:06;9.10;;;8.60;;
17449;SDS011;8842;51.244;7.102;2023-06-24T03:04:18;9.60;;;9.10;;
17449;SDS011;8842;51.244;7.102;2023-06-24T03:09:23;8.87;;;8.47;;
17449;SDS011;8842;51.244;7.102;2023-06-24T03:14:34;9.80;;;9.30;;
17449;SDS011;8842;51.244;7.102;2023-06-24T03:19:39;10.27;;;9.67;;
17449;SDS011;8842;51.244;7.102;2023-06-24T03:24:54;9.30;;;8.80;;
17449;SDS011;8842;51.244;7.102;2023-06-24T03:29:58;9.00;;;8.60;;
17449;SDS011;8842;51.244;7.102;2023-06-24T03:35:10;10.07;;;9.50;;
17449;SDS011;8842;51.244;7.102;2023-06-24T03:40:14;10.50;;;9.80;;
17449;SDS011;8842;51.244;7.102;2023-06-24T03:45:25;9.80;;;9.30;;
17449;SDS011;8842;51.244;7.102;2023-06-24T03:50:30;10.07;;;9.57;;
17449;SDS011;8842;51.244;7.102;2023-06-24T03:55:41;10.00;;;9.50;;
17449;SDS011;8842;51.244;7.102;2023-06-24T04:00:46;10.17;;;9.67;;
17449;SDS011;8842;51.244;7.102;2023-06-24T04:05:53;10.20;;;9.70;;
17449;SDS011;8842;51.244;7.102;2023-06-24T04:16:08;9.90;;;9.40;;
17449;SDS011;8842;51.244;7.102;2023-06-24T04:26:25;10.00;;;9.50;;
17449;SDS011;8842;51.244;7.102;2023-06-24T04:31:29;9.70;;;9.20;;
17449;SDS011;8842;51.244;7.102;2023-06-24T04:36:41;10.37;;;9.77;;
17449;SDS011;8842;51.244;7.102;2023-06-24T04:41:45;9.90;;;9.40;;
17449;SDS011;8842;51.244;7.102;2023-06-24T04:46:50;9.90;;;9.40;;
17449;SDS011;8842;51.244;7.102;2023-06-24T04:51:55;10.10;;;9.60;;
17449;SDS011;8842;51.244;7.102;2023-06-24T04:57:09;9.50;;;9.00;;
17449;SDS011;8842;51.244;7.102;2023-06-24T05:02:14;9.10;;;8.63;;
17449;SDS011;8842;51.244;7.102;2023-06-24T05:07:28;9.60;;;9.10;;
17449;SDS011;8842;51.244;7.102;2023-06-24T05:12:32;9.83;;;9.33;;
17449;SDS011;8842;51.244;7.102;2023-06-24T05:17:46;9.97;;;9.47;;
17449;SDS011;8842;51.244;7.102;2023-06-24T05:22:50;8.33;;;7.93;;
17449;SDS011;8842;51.244;7.102;2023-06-24T05:27:54;9.53;;;9.03;;
17449;SDS011;8842;51.244;7.102;2023-06-24T05:32:58;9.80;;;9.30;;
17449;SDS011;8842;51.244;7.102;2023-06-24T05:38:10;10.23;;;9.63;;
17449;SDS011;8842;51.244;7.102;2023-06-24T05:43:14;9.97;;;9.47;;
17449;SDS011;8842;51.244;7.102;2023-06-24T05:48:28;10.10;;;9.60;;
17449;SDS011;8842;51.244;7.102;2023-06-24T05:53:32;10.30;;;9.80;;
17449;SDS011;8842;51.244;7.102;2023-06-24T05:58:36;8.70;;;8.30;;
17449;SDS011;8842;51.244;7.102;2023-06-24T06:03:48;10.50;;;10.00;;
17449;SDS011;8842;51.244;7.102;2023-06-24T06:08:52;10.87;;;10.30;;
17449;SDS011;8842;51.244;7.102;2023-06-24T06:13:56;10.60;;;10.10;;
17449;SDS011;8842;51.244;7.102;2023-06-24T06:19:08;11.50;;;10.90;;
17449;SDS011;8842;51.244;7.102;2023-06-24T06:24:12;10.97;;;10.37;;
17449;SDS011;8842;51.244;7.102;2023-06-24T06:29:24;11.30;;;10.70;;
17449;SDS011;8842;51.244;7.102;2023-06-24T06:34:28;10.60;;;10.00;;
17449;SDS011;8842;51.244;7.102;2023-06-24T06:39:40;10.90;;;10.30;;
17449;SDS011;8842;51.244;7.102;2023-06-24T06:44:43;11.10;;;10.50;;
17449;SDS011;8842;51.244;7.102;2023-06-24T06:49:55;11.40;;;10.70;;
17449;SDS011;8842;51.244;7.102;2023-06-24T06:54:59;11.00;;;10.40;;
17449;SDS011;8842;51.244;7.102;2023-06-24T07:00:12;10.85;;;10.30;;
17449;SDS011;8842;51.244;7.102;2023-06-24T07:05:16;10.90;;;10.30;;
17449;SDS011;8842;51.244;7.102;2023-06-24T07:10:28;11.48;;;10.88;;
17449;SDS011;8842;51.244;7.102;2023-06-24T07:15:32;11.00;;;10.40;;
17449;SDS011;8842;51.244;7.102;2023-06-24T07:20:46;11.10;;;10.50;;
17449;SDS011;8842;51.244;7.102;2023-06-24T07:25:51;10.23;;;9.73;;
17449;SDS011;8842;51.244;7.102;2023-06-24T07:30:55;9.93;;;9.43;;
17449;SDS011;8842;51.244;7.102;2023-06-24T07:35:59;10.27;;;9.67;;
17449;SDS011;8842;51.244;7.102;2023-06-24T07:41:13;9.90;;;9.40;;
17449;SDS011;8842;51.244;7.102;2023-06-24T07:46:17;9.73;;;9.23;;
17449;SDS011;8842;51.244;7.102;2023-06-24T07:51:29;10.72;;;10.13;;
17449;SDS011;8842;51.244;7.102;2023-06-24T07:56:33;10.28;;;9.70;;
17449;SDS011;8842;51.244;7.102;2023-06-24T08:01:45;10.40;;;9.80;;
17449;SDS011;8842;51.244;7.102;2023-06-24T08:06:49;9.95;;;9.45;;
17449;SDS011;8842;51.244;7.102;2023-06-24T08:11:53;10.90;;;10.20;;
17449;SDS011;8842;51.244;7.102;2023-06-24T08:16:57;10.65;;;10.05;;
17449;SDS011;8842;51.244;7.102;2023-06-24T08:22:08;10.08;;;9.58;;
17449;SDS011;8842;51.244;7.102;2023-06-24T08:27:12;10.18;;;9.58;;
17449;SDS011;8842;51.244;7.102;2023-06-24T08:32:24;9.03;;;8.53;;
17449;SDS011;8842;51.244;7.102;2023-06-24T08:42:43;8.65;;;8.15;;
17449;SDS011;8842;51.244;7.102;2023-06-24T08:47:47;10.30;;;9.80;;
17449;SDS011;8842;51.244;7.102;2023-06-24T08:53:03;9.78;;;9.18;;
17449;SDS011;8842;51.244;7.102;2023-06-24T08:58:10;10.10;;;9.50;;
17449;SDS011;8842;51.244;7.102;2023-06-24T09:03:25;9.90;;;9.30;;
17449;SDS011;8842;51.244;7.102;2023-06-24T09:08:29;10.00;;;9.50;;
17449;SDS011;8842;51.244;7.102;2023-06-24T09:13:40;9.68;;;9.08;;
17449;SDS011;8842;51.244;7.102;2023-06-24T09:18:47;9.08;;;8.58;;
17449;SDS011;8842;51.244;7.102;2023-06-24T09:23:55;9.73;;;9.15;;
17449;SDS011;8842;51.244;7.102;2023-06-24T09:29:09;8.58;;;8.18;;
17449;SDS011;8842;51.244;7.102;2023-06-24T09:39:25;9.60;;;9.00;;
17449;SDS011;8842;51.244;7.102;2023-06-24T09:44:32;10.13;;;9.53;;
17449;SDS011;8842;51.244;7.102;2023-06-24T09:49:46;9.90;;;9.30;;
17449;SDS011;8842;51.244;7.102;2023-06-24T09:54:50;8.90;;;8.45;;
17449;SDS011;8842;51.244;7.102;2023-06-24T10:00:06;9.33;;;8.83;;
17449;SDS011;8842;51.244;7.102;2023-06-24T10:05:13;9.83;;;9.33;;
17449;SDS011;8842;51.244;7.102;2023-06-24T10:10:25;10.18;;;9.58;;
17449;SDS011;8842;51.244;7.102;2023-06-24T10:15:29;11.00;;;10.40;;
17449;SDS011;8842;51.244;7.102;2023-06-24T10:20:41;10.63;;;10.03;;
17449;SDS011;8842;51.244;7.102;2023-06-24T10:25:47;10.90;;;10.32;;
17449;SDS011;8842;51.244;7.102;2023-06-24T10:30:59;11.12;;;10.32;;
17449;SDS011;8842;51.244;7.102;2023-06-24T10:36:03;11.12;;;10.53;;
17449;SDS011;8842;51.244;7.102;2023-06-24T10:41:17;11.43;;;10.82;;
17449;SDS011;8842;51.244;7.102;2023-06-24T10:46:22;11.30;;;10.35;;
17449;SDS011;8842;51.244;7.102;2023-06-24T10:51:35;10.40;;;9.80;;
17449;SDS011;8842;51.244;7.102;2023-06-24T10:56:39;11.00;;;10.40;;
17449;SDS011;8842;51.244;7.102;2023-06-24T11:01:54;10.45;;;9.85;;
17449;SDS011;8842;51.244;7.102;2023-06-24T11:06:58;10.30;;;9.80;;
17449;SDS011;8842;51.244;7.102;2023-06-24T11:12:10;10.32;;;9.83;;
17449;SDS011;8842;51.244;7.102;2023-06-24T11:17:14;10.75;;;10.15;;
17449;SDS011;8842;51.244;7.102;2023-06-24T11:22:18;10.45;;;9.95;;
17449;SDS011;8842;51.244;7.102;2023-06-24T11:27:33;11.03;;;10.43;;
17449;SDS011;8842;51.244;7.102;2023-06-24T11:32:37;10.80;;;10.20;;
17449;SDS011;8842;51.244;7.102;2023-06-24T11:37:49;9.58;;;9.08;;
17449;SDS011;8842;51.244;7.102;2023-06-24T11:42:53;9.73;;;9.23;;
17449;SDS011;8842;51.244;7.102;2023-06-24T11:48:08;10.55;;;9.85;;
17449;SDS011;8842;51.244;7.102;2023-06-24T11:53:12;9.40;;;8.90;;
17449;SDS011;8842;51.244;7.102;2023-06-24T11:58:23;8.80;;;8.40;;
17449;SDS011;8842;51.244;7.102;2023-06-24T12:03:28;8.90;;;8.30;;
17449;SDS011;8842;51.244;7.102;2023-06-24T12:08:34;9.08;;;8.58;;
17449;SDS011;8842;51.244;7.102;2023-06-24T12:13:46;8.45;;;8.05;;
17449;SDS011;8842;51.244;7.102;2023-06-24T12:18:50;8.65;;;8.23;;
17449;SDS011;8842;51.244;7.102;2023-06-24T12:24:02;8.55;;;8.05;;
17449;SDS011;8842;51.244;7.102;2023-06-24T12:29:14;8.68;;;8.28;;
17449;SDS011;8842;51.244;7.102;2023-06-24T12:34:18;7.40;;;7.00;;
17449;SDS011;8842;51.244;7.102;2023-06-24T12:39:29;7.80;;;7.40;;
17449;SDS011;8842;51.244;7.102;2023-06-24T12:44:33;8.40;;;8.00;;
17449;SDS011;8842;51.244;7.102;2023-06-24T12:49:37;9.00;;;8.48;;
17449;SDS011;8842;51.244;7.102;2023-06-24T12:54:52;8.33;;;7.92;;
17449;SDS011;8842;51.244;7.102;2023-06-24T12:59:56;9.38;;;8.53;;
17449;SDS011;8842;51.244;7.102;2023-06-24T13:05:08;9.50;;;8.95;;
17449;SDS011;8842;51.244;7.102;2023-06-24T13:10:12;8.75;;;8.35;;
17449;SDS011;8842;51.244;7.102;2023-06-24T13:15:24;8.68;;;8.28;;
17449;SDS011;8842;51.244;7.102;2023-06-24T13:20:29;8.33;;;7.92;;
17449;SDS011;8842;51.244;7.102;2023-06-24T13:25:41;8.85;;;8.45;;
17449;SDS011;8842;51.244;7.102;2023-06-24T13:30:45;9.25;;;8.75;;
17449;SDS011;8842;51.244;7.102;2023-06-24T13:35:57;9.70;;;9.20;;
17449;SDS011;8842;51.244;7.102;2023-06-24T13:41:01;9.63;;;9.13;;
17449;SDS011;8842;51.244;7.102;2023-06-24T13:46:13;9.63;;;9.13;;
17449;SDS011;8842;51.244;7.102;2023-06-24T13:51:17;10.15;;;9.15;;
17449;SDS011;8842;51.244;7.102;2023-06-24T13:56:22;9.28;;;8.78;;
17449;SDS011;8842;51.244;7.102;2023-06-24T14:01:36;9.75;;;9.23;;
17449;SDS011;8842;51.244;7.102;2023-06-24T14:06:40;9.05;;;8.55;;
17449;SDS011;8842;51.244;7.102;2023-06-24T14:11:45;9.13;;;8.63;;
17449;SDS011;8842;51.244;7.102;2023-06-24T14:16:49;9.13;;;8.65;;
17449;SDS011;8842;51.244;7.102;2023-06-24T14:22:04;8.80;;;8.30;;
17449;SDS011;8842;51.244;7.102;2023-06-24T14:27:09;8.90;;;8.50;;
17449;SDS011;8842;51.244;7.102;2023-06-24T14:32:20;9.78;;;9.28;;
17449;SDS011;8842;51.244;7.102;2023-06-24T14:37:25;9.68;;;9.18;;
17449;SDS011;8842;51.244;7.102;2023-06-24T14:42:29;9.40;;;8.90;;
17449;SDS011;8842;51.244;7.102;2023-06-24T14:47:33;9.53;;;9.03;;
17449;SDS011;8842;51.244;7.102;2023-06-24T14:52:44;9.60;;;9.10;;
17449;SDS011;8842;51.244;7.102;2023-06-24T14:57:49;9.40;;;8.90;;
17449;SDS011;8842;51.244;7.102;2023-06-24T15:03:00;9.40;;;8.90;;
17449;SDS011;8842;51.244;7.102;2023-06-24T15:08:04;10.13;;;9.63;;
17449;SDS011;8842;51.244;7.102;2023-06-24T15:13:16;9.10;;;8.70;;
17449;SDS011;8842;51.244;7.102;2023-06-24T15:18:20;9.48;;;8.98;;
17449;SDS011;8842;51.244;7.102;2023-06-24T15:23:25;10.00;;;9.50;;
17449;SDS011;8842;51.244;7.102;2023-06-24T15:28:29;9.23;;;8.73;;
17449;SDS011;8842;51.244;7.102;2023-06-24T15:33:33;9.85;;;9.35;;
17449;SDS011;8842;51.244;7.102;2023-06-24T15:38:45;10.35;;;9.75;;
17449;SDS011;8842;51.244;7.102;2023-06-24T15:43:49;9.98;;;9.48;;
17449;SDS011;8842;51.244;7.102;2023-06-24T15:49:01;9.95;;;9.45;;
17449;SDS011;8842;51.244;7.102;2023-06-24T15:54:05;9.63;;;9.13;;
17449;SDS011;8842;51.244;7.102;2023-06-24T15:59:19;10.18;;;9.68;;
17449;SDS011;8842;51.244;7.102;2023-06-24T16:04:23;10.00;;;9.50;;
17449;SDS011;8842;51.244;7.102;2023-06-24T16:09:27;9.95;;;9.45;;
17449;SDS011;8842;51.244;7.102;2023-06-24T16:14:31;10.40;;;9.90;;
17449;SDS011;8842;51.244;7.102;2023-06-24T16:19:35;10.65;;;10.15;;
17449;SDS011;8842;51.244;7.102;2023-06-24T16:24:39;10.32;;;9.83;;
17449;SDS011;8842;51.244;7.102;2023-06-24T16:29:51;10.88;;;9.93;;
17449;SDS011;8842;51.244;7.102;2023-06-24T16:34:55;10.45;;;9.90;;
17449;SDS011;8842;51.244;7.102;2023-06-24T16:40:08;9.80;;;9.30;;
17449;SDS011;8842;51.244;7.102;2023-06-24T16:45:12;9.70;;;9.20;;
17449;SDS011;8842;51.244;7.102;2023-06-24T16:50:26;9.73;;;9.23;;
17449;SDS011;8842;51.244;7.102;2023-06-24T16:55:31;9.48;;;8.98;;
17449;SDS011;8842;51.244;7.102;2023-06-24T17:00:35;9.43;;;8.93;;
17449;SDS011;8842;51.244;7.102;2023-06-24T17:05:49;8.93;;;8.50;;
17449;SDS011;8842;51.244;7.102;2023-06-24T17:10:53;9.75;;;9.25;;
17449;SDS011;8842;51.244;7.102;2023-06-24T17:16:05;9.43;;;8.93;;
17449;SDS011;8842;51.244;7.102;2023-06-24T17:21:09;9.50;;;9.00;;
17449;SDS011;8842;51.244;7.102;2023-06-24T17:26:20;10.18;;;9.68;;
17449;SDS011;8842;51.244;7.102;2023-06-24T17:31:25;10.00;;;9.50;;
17449;SDS011;8842;51.244;7.102;2023-06-24T17:36:29;10.58;;;9.98;;
17449;SDS011;8842;51.244;7.102;2023-06-24T17:41:33;10.20;;;9.70;;
17449;SDS011;8842;51.244;7.102;2023-06-24T17:46:37;9.83;;;9.33;;
17449;SDS011;8842;51.244;7.102;2023-06-24T17:51:48;10.20;;;9.63;;
17449;SDS011;8842;51.244;7.102;2023-06-24T17:56:52;10.50;;;9.90;;
17449;SDS011;8842;51.244;7.102;2023-06-24T18:01:56;9.60;;;9.10;;
17449;SDS011;8842;51.244;7.102;2023-06-24T18:07:08;9.93;;;9.43;;
17449;SDS011;8842;51.244;7.102;2023-06-24T18:12:13;9.80;;;9.30;;
17449;SDS011;8842;51.244;7.102;2023-06-24T18:17:25;10.32;;;9.78;;
17449;SDS011;8842;51.244;7.102;2023-06-24T18:22:29;10.80;;;10.20;;
17449;SDS011;8842;51.244;7.102;2023-06-24T18:27:33;10.45;;;9.85;;
17449;SDS011;8842;51.244;7.102;2023-06-24T18:32:45;10.20;;;9.70;;
17449;SDS011;8842;51.244;7.102;2023-06-24T18:37:49;9.90;;;9.40;;
17449;SDS011;8842;51.244;7.102;2023-06-24T18:43:01;10.30;;;9.80;;
17449;SDS011;8842;51.244;7.102;2023-06-24T18:48:07;10.10;;;9.60;;
17449;SDS011;8842;51.244;7.102;2023-06-24T18:53:11;10.10;;;9.60;;
17449;SDS011;8842;51.244;7.102;2023-06-24T18:58:22;10.30;;;9.80;;
17449;SDS011;8842;51.244;7.102;2023-06-24T19:03:26;10.10;;;9.60;;
17449;SDS011;8842;51.244;7.102;2023-06-24T19:08:41;10.18;;;9.58;;
17449;SDS011;8842;51.244;7.102;2023-06-24T19:13:46;9.90;;;9.40;;
17449;SDS011;8842;51.244;7.102;2023-06-24T19:18:51;10.15;;;9.65;;
17449;SDS011;8842;51.244;7.102;2023-06-24T19:24:03;10.40;;;9.90;;
17449;SDS011;8842;51.244;7.102;2023-06-24T19:29:08;10.50;;;10.00;;
17449;SDS011;8842;51.244;7.102;2023-06-24T19:34:12;10.35;;;9.83;;
17449;SDS011;8842;51.244;7.102;2023-06-24T19:39:23;11.20;;;10.60;;
17449;SDS011;8842;51.244;7.102;2023-06-24T19:44:28;10.93;;;10.32;;
17449;SDS011;8842;51.244;7.102;2023-06-24T19:49:48;10.95;;;10.35;;
17449;SDS011;8842;51.244;7.102;2023-06-24T19:54:52;11.05;;;10.48;;
17449;SDS011;8842;51.244;7.102;2023-06-24T20:00:05;11.20;;;10.60;;
17449;SDS011;8842;51.244;7.102;2023-06-24T20:05:20;10.72;;;10.20;;
17449;SDS011;8842;51.244;7.102;2023-06-24T20:10:25;12.23;;;11.22;;
17449;SDS011;8842;51.244;7.102;2023-06-24T20:15:29;11.57;;;10.88;;
17449;SDS011;8842;51.244;7.102;2023-06-24T20:20:43;10.98;;;10.38;;
17449;SDS011;8842;51.244;7.102;2023-06-24T20:25:47;11.35;;;10.70;;
17449;SDS011;8842;51.244;7.102;2023-06-24T20:30:52;10.90;;;10.30;;
17449;SDS011;8842;51.244;7.102;2023-06-24T20:35:58;11.12;;;10.43;;
17449;SDS011;8842;51.244;7.102;2023-06-24T20:41:02;10.68;;;10.13;;
17449;SDS011;8842;51.244;7.102;2023-06-24T20:46:06;10.55;;;10.05;;
17449;SDS011;8842;51.244;7.102;2023-06-24T20:51:20;10.68;;;10.18;;
17449;SDS011;8842;51.244;7.102;2023-06-24T21:01:36;10.88;;;10.20;;
17449;SDS011;8842;51.244;7.102;2023-06-24T21:06:40;10.43;;;9.93;;
17449;SDS011;8842;51.244;7.102;2023-06-24T21:11:44;10.55;;;9.95;;
17449;SDS011;8842;51.244;7.102;2023-06-24T21:16:48;10.48;;;9.98;;
17449;SDS011;8842;51.244;7.102;2023-06-24T21:21:52;10.10;;;9.60;;
17449;SDS011;8842;51.244;7.102;2023-06-24T21:26:56;10.07;;;9.57;;
17449;SDS011;8842;51.244;7.102;2023-06-24T21:32:00;9.60;;;9.10;;
17449;SDS011;8842;51.244;7.102;2023-06-24T21:37:05;9.80;;;9.30;;
17449;SDS011;8842;51.244;7.102;2023-06-24T21:42:09;10.40;;;9.90;;
17449;SDS011;8842;51.244;7.102;2023-06-24T21:47:13;10.07;;;9.57;;
17449;SDS011;8842;51.244;7.102;2023-06-24T21:52:25;10.67;;;10.07;;
17449;SDS011;8842;51.244;7.102;2023-06-24T21:57:29;10.50;;;10.00;;
17449;SDS011;8842;51.244;7.102;2023-06-24T22:02:41;10.90;;;10.30;;
17449;SDS011;8842;51.244;7.102;2023-06-24T22:07:45;11.03;;;10.43;;
17449;SDS011;8842;51.244;7.102;2023-06-24T22:12:49;11.17;;;10.37;;
17449;SDS011;8842;51.244;7.102;2023-06-24T22:18:00;11.10;;;10.50;;
17449;SDS011;8842;51.244;7.102;2023-06-24T22:23:04;11.00;;;10.40;;
17449;SDS011;8842;51.244;7.102;2023-06-24T22:28:16;11.57;;;10.90;;
17449;SDS011;8842;51.244;7.102;2023-06-24T22:33:20;11.33;;;10.73;;
17449;SDS011;8842;51.244;7.102;2023-06-24T22:38:32;11.30;;;10.70;;
17449;SDS011;8842;51.244;7.102;2023-06-24T22:48:48;10.80;;;10.20;;
17449;SDS011;8842;51.244;7.102;2023-06-24T22:53:53;10.90;;;10.30;;
17449;SDS011;8842;51.244;7.102;2023-06-24T22:59:04;10.87;;;10.27;;
17449;SDS011;8842;51.244;7.102;2023-06-24T23:09:20;11.10;;;10.50;;
17449;SDS011;8842;51.244;7.102;2023-06-24T23:14:24;11.13;;;10.53;;
17449;SDS011;8842;51.244;7.102;2023-06-24T23:19:37;10.53;;;10.03;;
17449;SDS011;8842;51.244;7.102;2023-06-24T23:24:42;10.77;;;10.20;;
17449;SDS011;8842;51.244;7.102;2023-06-24T23:29:57;11.10;;;10.50;;
17449;SDS011;8842;51.244;7.102;2023-06-24T23:35:11;11.27;;;10.67;;
17449;SDS011;8842;51.244;7.102;2023-06-24T23:40:16;10.60;;;10.10;;
17449;SDS011;8842;51.244;7.102;2023-06-24T23:45:28;11.30;;;10.70;;
17449;SDS011;8842;51.244;7.102;2023-06-24T23:50:40;11.00;;;10.40;;
17449;SDS011;8842;51.244;7.102;2023-06-24T23:55:44;10.80;;;10.23;;
